Terminal Aerodrome Forecast
Issued by NWS

Home | Current Version | Previous Version | Graphics & Text | Print | Product List | Glossary On
Versions: 1 2 3 4 5 6 7 8 9 10 11 12 13 14 15 16
440
FTUS43 KBIS 041120
TAFDIK
TAF
KDIK 041120Z 0412/0512 29005KT P6SM BKN100
     FM041800 22008KT P6SM BKN120
     FM050700 27011KT 5SM -SN BR OVC025=

USA.gov is the U.S. government's official web portal to all federal, state and local government web resources and services.